Time;durP1;ratioP1;P1;durP2;ratioP2;P2;SDS_P1;SDS_P2;PMS_P1;PMS_P2;Temp;Humidity;BMP_temperature;BMP_pressure;BME280_temperature;BME280_humidity;BME280_pressure;Samples;Min_cycle;Max_cycle;Signal;HPM_P1;HPM_P2
2021/08/22 05:02:17;;;;;;;4.65;2.65;;;;;;;18.19;73.09;92956.13;5073528;23;20057;-76
2021/08/22 05:04:43;;;;;;;4.40;2.17;;;;;;;18.23;73.16;92949.84;4869870;29;20569;-76
2021/08/22 05:07:09;;;;;;;3.20;2.05;;;;;;;18.29;73.16;92955.75;4878336;29;20510;-76
2021/08/22 05:09:34;;;;;;;3.30;2.03;;;;;;;18.33;73.85;92961.97;4883199;29;20056;-77
2021/08/22 05:12:00;;;;;;;5.05;2.17;;;;;;;18.38;74.60;92964.41;4885086;29;20498;-77
2021/08/22 05:14:35;;;;;;;4.32;2.33;;;;;;;18.41;74.32;92961.13;4882472;29;20133;-77
2021/08/22 05:17:02;;;;;;;2.63;1.88;;;;;;;18.44;74.48;92965.00;4899199;29;20040;-77
2021/08/22 05:19:28;;;;;;;4.07;2.10;;;;;;;18.47;74.41;92959.84;4867811;29;20055;-77
2021/08/22 05:21:53;;;;;;;4.75;2.50;;;;;;;18.51;73.68;92959.97;4901842;29;20064;-77
2021/08/22 05:24:19;;;;;;;4.30;2.50;;;;;;;18.58;73.72;92965.53;4885011;29;20134;-77
2021/08/22 05:26:45;;;;;;;4.03;2.20;;;;;;;18.66;73.42;92955.94;4902054;29;20087;-77
2021/08/22 05:29:10;;;;;;;3.90;1.83;;;;;;;18.75;73.74;92959.28;4868597;29;20383;-78
2021/08/22 05:31:36;;;;;;;4.57;2.08;;;;;;;18.81;73.99;92952.72;4900062;29;20116;-77
2021/08/22 05:34:02;;;;;;;6.72;2.83;;;;;;;18.89;73.91;92954.53;4895501;29;20040;-77
2021/08/22 05:36:27;;;;;;;4.70;2.65;;;;;;;18.95;73.97;92951.66;4881636;29;20052;-77
2021/08/22 05:38:55;;;;;;;3.40;2.03;;;;;;;19.02;73.96;92946.59;4865812;29;20166;-77
2021/08/22 05:41:21;;;;;;;5.53;2.75;;;;;;;19.04;74.06;92955.78;4866029;29;20084;-77
2021/08/22 05:43:47;;;;;;;3.55;2.33;;;;;;;19.09;73.91;92952.94;4893135;29;20101;-77
2021/08/22 05:46:12;;;;;;;4.15;2.28;;;;;;;19.13;73.69;92953.81;4884673;29;20094;-77
2021/08/22 05:48:38;;;;;;;4.50;2.47;;;;;;;19.19;73.87;92950.97;4881638;29;20041;-77
2021/08/22 05:51:05;;;;;;;3.28;2.17;;;;;;;19.22;73.98;92950.31;4899848;29;20048;-78
2021/08/22 05:53:31;;;;;;;4.00;2.55;;;;;;;19.25;73.92;92960.25;4851896;29;20047;-77
2021/08/22 05:55:57;;;;;;;4.05;2.25;;;;;;;19.24;74.30;92959.50;4901313;29;20044;-77
2021/08/22 05:58:23;;;;;;;4.20;2.28;;;;;;;19.25;74.53;92968.22;4901072;29;20118;-77
2021/08/22 06:00:49;;;;;;;5.22;2.78;;;;;;;19.22;74.50;92969.66;4881717;29;20051;-77
2021/08/22 06:03:14;;;;;;;7.10;2.70;;;;;;;19.21;74.73;92964.69;4874690;29;20423;-77
2021/08/22 06:05:40;;;;;;;4.80;2.70;;;;;;;19.21;74.53;92970.78;4901171;29;20059;-77
2021/08/22 06:08:06;;;;;;;5.18;2.22;;;;;;;19.21;74.99;92970.78;4900964;29;20516;-77
2021/08/22 06:10:31;;;;;;;3.80;2.13;;;;;;;19.23;75.25;92984.50;4884676;29;20460;-77
2021/08/22 06:12:57;;;;;;;3.03;2.00;;;;;;;19.27;75.17;92980.09;4901732;29;20101;-77
2021/08/22 06:15:22;;;;;;;5.45;2.47;;;;;;;19.34;74.85;92976.88;4901649;29;20159;-77
2021/08/22 06:17:48;;;;;;;5.22;2.55;;;;;;;19.42;74.66;92976.00;4868276;29;20045;-77
2021/08/22 06:20:14;;;;;;;3.20;1.88;;;;;;;19.52;74.21;92980.91;4900795;29;20452;-77
2021/08/22 06:22:40;;;;;;;4.00;2.22;;;;;;;19.58;74.77;92986.78;4901265;29;20044;-77
2021/08/22 06:25:06;;;;;;;4.60;2.13;;;;;;;19.67;73.98;92982.13;4900200;29;20506;-77
2021/08/22 06:27:31;;;;;;;4.70;2.33;;;;;;;19.79;73.32;92980.63;4880629;29;20045;-77
2021/08/22 06:30:00;;;;;;;2.92;1.88;;;;;;;19.90;72.91;92977.19;4881978;29;20085;-77
2021/08/22 06:32:25;;;;;;;3.75;2.33;;;;;;;20.06;72.23;92987.16;4887607;29;20091;-77
2021/08/22 06:34:51;;;;;;;4.13;2.10;;;;;;;20.18;71.33;92987.94;4883182;29;20052;-77
2021/08/22 06:37:17;;;;;;;3.70;2.13;;;;;;;20.33;70.56;92985.69;4852633;29;20143;-77
2021/08/22 06:39:42;;;;;;;4.20;2.42;;;;;;;20.47;70.50;92988.78;4900535;29;20483;-77
2021/08/22 06:42:09;;;;;;;3.80;2.50;;;;;;;20.58;70.71;92987.25;4899657;29;20057;-77
2021/08/22 06:44:38;;;;;;;4.65;2.83;;;;;;;20.59;70.17;92988.03;4868125;29;20040;-77
2021/08/22 06:47:06;;;;;;;3.08;2.13;;;;;;;20.63;69.23;92993.47;4895852;29;20056;-77
2021/08/22 06:49:32;;;;;;;5.90;2.45;;;;;;;20.79;66.60;93000.38;4868035;29;20080;-76
2021/08/22 06:51:58;;;;;;;3.28;1.83;;;;;;;21.07;66.83;93002.28;4879013;29;20127;-76
2021/08/22 06:54:23;;;;;;;3.95;2.50;;;;;;;21.40;67.62;93004.72;4874229;29;20514;-75
2021/08/22 06:56:51;;;;;;;4.75;3.10;;;;;;;21.51;67.06;93004.22;4878967;29;20041;-75
2021/08/22 06:59:18;;;;;;;3.25;2.05;;;;;;;21.51;66.96;93005.00;4880119;29;20051;-76
2021/08/22 07:01:43;;;;;;;3.38;2.25;;;;;;;21.14;67.92;92999.03;4894433;29;20049;-75
2021/08/22 07:04:12;;;;;;;5.20;3.28;;;;;;;21.05;67.77;92995.75;4880439;29;20631;-77
2021/08/22 07:06:38;;;;;;;5.38;2.60;;;;;;;21.02;68.48;93001.75;4866084;29;20103;-75
2021/08/22 07:09:04;;;;;;;4.32;2.58;;;;;;;20.96;68.79;92999.34;4880272;29;20048;-76
2021/08/22 07:11:29;;;;;;;3.90;2.67;;;;;;;20.88;69.22;92997.59;4892056;29;20044;-75
2021/08/22 07:13:57;;;;;;;5.80;2.60;;;;;;;20.85;69.78;92995.63;4893601;29;20084;-78
2021/08/22 07:16:22;;;;;;;4.80;2.40;;;;;;;20.72;70.40;93002.84;4875732;29;20570;-76
2021/08/22 07:18:48;;;;;;;3.35;2.10;;;;;;;20.79;67.18;92995.06;4895547;29;20047;-77
2021/08/22 07:21:13;;;;;;;5.00;2.45;;;;;;;20.57;65.64;92996.31;4864979;29;20448;-77
2021/08/22 07:23:39;;;;;;;3.03;2.10;;;;;;;20.51;65.00;92996.88;4876504;29;20088;-77
2021/08/22 07:26:05;;;;;;;3.53;2.40;;;;;;;20.49;66.28;92997.22;4879028;29;20556;-77
2021/08/22 07:28:30;;;;;;;2.90;1.92;;;;;;;20.58;66.31;92999.78;4896167;29;20108;-77
2021/08/22 07:30:56;;;;;;;4.50;1.73;;;;;;;20.63;67.22;93004.09;4877878;29;20439;-77
2021/08/22 07:33:22;;;;;;;3.13;2.00;;;;;;;20.47;67.73;93007.41;4880755;29;20057;-77
2021/08/22 07:35:47;;;;;;;3.55;2.38;;;;;;;20.35;68.47;92994.91;4897923;29;20123;-77
2021/08/22 07:38:13;;;;;;;3.75;2.28;;;;;;;20.52;69.01;92998.44;4897103;29;20052;-77
2021/08/22 07:40:39;;;;;;;3.75;2.25;;;;;;;20.59;67.63;92991.44;4880878;29;20467;-77
2021/08/22 07:43:05;;;;;;;4.45;2.70;;;;;;;20.68;68.03;93001.19;4865410;29;20673;-77
2021/08/22 07:45:30;;;;;;;3.58;2.17;;;;;;;20.82;68.57;92998.16;4865770;29;20045;-77
2021/08/22 07:47:56;;;;;;;4.72;2.78;;;;;;;20.94;68.12;92998.91;4881214;29;20059;-77
2021/08/22 07:50:22;;;;;;;5.00;3.13;;;;;;;21.12;68.39;93004.72;4880762;29;20045;-77
2021/08/22 07:52:47;;;;;;;5.30;2.60;;;;;;;21.29;67.90;92995.66;4880662;29;20048;-76
2021/08/22 07:55:13;;;;;;;3.35;2.13;;;;;;;21.46;68.11;92991.16;4879902;29;20074;-77
2021/08/22 07:57:39;;;;;;;3.75;2.25;;;;;;;21.56;68.52;93003.97;4880683;29;20059;-77
2021/08/22 08:00:05;;;;;;;4.55;2.10;;;;;;;21.65;68.49;93004.59;4865167;29;20040;-77
2021/08/22 08:02:37;;;;;;;4.15;2.30;;;;;;;21.70;67.94;92996.31;4895116;29;20083;-77
2021/08/22 08:05:03;;;;;;;4.57;2.45;;;;;;;21.78;66.24;92998.06;4879166;29;20490;-78
2021/08/22 08:07:28;;;;;;;3.92;2.20;;;;;;;21.61;68.80;93003.72;4867024;29;20112;-78
2021/08/22 08:09:55;;;;;;;4.97;2.70;;;;;;;21.53;68.93;93002.00;4882615;29;20056;-78
2021/08/22 08:12:20;;;;;;;5.45;2.38;;;;;;;21.38;69.81;92996.25;4899331;29;20082;-78
2021/08/22 08:14:46;;;;;;;11.70;2.47;;;;;;;21.13;68.96;93003.59;4898516;29;20049;-78
2021/08/22 08:17:12;;;;;;;4.03;2.45;;;;;;;21.18;67.56;92999.91;4882508;29;20040;-78
2021/08/22 08:19:37;;;;;;;3.80;2.40;;;;;;;21.12;68.22;93003.91;4881780;29;20143;-78
2021/08/22 08:22:05;;;;;;;5.55;2.83;;;;;;;21.16;69.59;92999.47;4866740;29;20044;-78
2021/08/22 08:24:31;;;;;;;4.72;2.72;;;;;;;20.80;69.27;93003.81;4885069;29;20052;-78
2021/08/22 08:26:56;;;;;;;7.13;3.67;;;;;;;21.16;68.17;93005.56;4866834;29;20040;-78
2021/08/22 08:29:22;;;;;;;5.03;3.13;;;;;;;21.22;67.28;93008.78;4881694;29;20048;-78
2021/08/22 08:31:48;;;;;;;3.60;2.30;;;;;;;21.88;65.75;93006.66;4882033;29;20422;-78
2021/08/22 08:34:13;;;;;;;3.72;2.30;;;;;;;22.57;64.92;92997.22;4882207;29;20045;-77
2021/08/22 08:36:39;;;;;;;4.22;2.63;;;;;;;23.18;62.13;92995.06;4882267;29;20064;-78
2021/08/22 08:39:05;;;;;;;3.53;2.00;;;;;;;22.98;62.91;92996.91;4899493;29;20400;-77
2021/08/22 08:41:30;;;;;;;4.05;2.03;;;;;;;22.63;64.76;92998.50;4864514;29;20037;-78
2021/08/22 08:43:56;;;;;;;5.60;3.10;;;;;;;22.76;64.64;92993.81;4863943;29;20063;-77
2021/08/22 08:46:29;;;;;;;5.60;2.33;;;;;;;22.80;65.59;92996.56;4887951;29;20033;-78
2021/08/22 08:49:00;;;;;;;4.47;2.50;;;;;;;22.65;65.77;92985.59;4882040;29;20080;-80
2021/08/22 08:51:38;;;;;;;4.47;2.58;;;;;;;22.95;65.96;92993.06;4898921;29;20033;-78
2021/08/22 08:54:23;;;;;;;5.88;3.13;;;;;;;22.85;65.64;92997.06;4899702;29;20087;-78
2021/08/22 08:56:49;;;;;;;3.22;2.13;;;;;;;23.22;63.59;92990.56;4882134;29;20051;-78
2021/08/22 08:59:14;;;;;;;3.15;2.03;;;;;;;22.89;65.09;92989.13;4866749;29;20040;-78
2021/08/22 09:01:41;;;;;;;5.60;2.50;;;;;;;22.83;64.94;92991.31;4876031;29;20069;-78
2021/08/22 09:04:16;;;;;;;4.10;2.22;;;;;;;23.12;64.27;92991.09;4877961;29;20049;-78
2021/08/22 09:07:00;;;;;;;3.78;2.05;;;;;;;23.29;63.47;92993.34;4879114;29;20053;-78
2021/08/22 09:10:03;;;;;;;4.25;2.67;;;;;;;23.02;64.53;92985.22;4877575;29;20504;-77
2021/08/22 09:12:53;;;;;;;4.88;2.25;;;;;;;23.32;63.87;92994.53;4859692;29;20056;-78
2021/08/22 09:15:44;;;;;;;5.78;2.80;;;;;;;23.41;61.66;92989.75;4880488;29;20043;-78
2021/08/22 09:18:47;;;;;;;3.97;2.60;;;;;;;23.34;63.15;92995.72;4878521;29;20072;-78
2021/08/22 09:21:37;;;;;;;5.90;2.85;;;;;;;23.21;62.91;92983.66;4873256;29;20045;-77
2021/08/22 09:24:32;;;;;;;4.18;2.22;;;;;;;24.08;61.10;92992.06;4865254;29;20048;-78
2021/08/22 09:27:35;;;;;;;5.97;3.17;;;;;;;24.16;61.01;92987.56;4855152;29;20045;-79
2021/08/22 09:30:22;;;;;;;3.08;1.98;;;;;;;23.85;61.27;92987.50;4892406;29;20485;-78
2021/08/22 09:33:25;;;;;;;2.92;2.13;;;;;;;23.93;59.02;92984.94;4880269;29;20424;-78
2021/08/22 09:36:25;;;;;;;3.88;2.20;;;;;;;23.76;60.52;92975.50;4864779;29;20048;-79
2021/08/22 09:39:28;;;;;;;3.35;2.00;;;;;;;24.19;60.59;92976.19;4872398;29;20045;-79
2021/08/22 09:42:12;;;;;;;4.88;2.92;;;;;;;24.06;60.68;92983.63;4878824;29;20037;-79
2021/08/22 09:44:48;;;;;;;5.03;3.13;;;;;;;23.73;62.08;92984.97;4880813;29;20049;-79
2021/08/22 09:47:23;;;;;;;5.28;2.72;;;;;;;23.73;61.05;92973.50;4878332;29;20128;-79
2021/08/22 09:50:07;;;;;;;5.60;2.72;;;;;;;24.13;58.31;92975.69;4862371;29;20049;-79
2021/08/22 09:52:37;;;;;;;6.22;2.83;;;;;;;23.95;56.53;92963.97;4878427;29;20077;-82
2021/08/22 09:55:27;;;;;;;4.38;2.58;;;;;;;24.34;54.77;92966.44;4885051;29;20060;-80
2021/08/22 09:58:30;;;;;;;3.33;2.03;;;;;;;24.44;57.69;92966.59;4884249;29;20060;-82
2021/08/22 10:01:21;;;;;;;4.72;2.83;;;;;;;24.14;55.76;92968.44;4880368;29;20057;-83
2021/08/22 10:04:16;;;;;;;4.70;2.60;;;;;;;24.29;53.37;92964.84;4898209;29;20243;-83
2021/08/22 10:06:45;;;;;;;4.18;2.25;;;;;;;24.12;52.53;92958.13;4866070;29;20072;-79
2021/08/22 10:09:18;;;;;;;3.90;2.30;;;;;;;24.13;50.90;92962.31;4864361;29;20274;-81
2021/08/22 10:11:54;;;;;;;4.47;2.55;;;;;;;24.37;52.96;92957.72;4887156;29;20040;-83
2021/08/22 10:14:21;;;;;;;3.78;2.38;;;;;;;24.39;53.56;92950.09;4879765;29;20065;-80
2021/08/22 10:16:49;;;;;;;3.47;2.22;;;;;;;24.54;53.09;92949.16;4885040;29;20071;-80
2021/08/22 10:19:15;;;;;;;8.57;5.47;;;;;;;25.07;52.82;92946.38;4877911;29;20053;-78
2021/08/22 10:21:41;;;;;;;11.52;10.27;;;;;;;25.08;51.29;92945.25;4875252;29;20037;-79
2021/08/22 10:24:10;;;;;;;4.97;3.83;;;;;;;25.64;53.12;92945.44;4881517;29;20522;-79
2021/08/22 10:26:49;;;;;;;7.88;5.68;;;;;;;25.35;52.07;92947.84;4885318;29;20045;-80
2021/08/22 10:29:22;;;;;;;13.10;10.85;;;;;;;25.80;52.24;92940.59;4882782;29;20040;-78
2021/08/22 10:31:54;;;;;;;5.45;3.58;;;;;;;25.48;51.44;92933.06;4870031;29;20043;-79
2021/08/22 10:34:21;;;;;;;;;;;;;;;25.59;48.71;92940.44;4900849;29;20054;-80
2021/08/22 10:36:47;;;;;;;25.25;16.45;;;;;;;25.62;49.59;92934.31;4879293;29;20342;-79
2021/08/22 10:39:27;;;;;;;51.25;25.52;;;;;;;25.42;53.52;92939.91;4882743;29;20053;-81
2021/08/22 10:41:53;;;;;;;18.02;9.30;;;;;;;25.30;52.89;92927.50;4876117;29;20475;-80
2021/08/22 10:44:34;;;;;;;11.52;3.95;;;;;;;25.76;48.88;92921.81;4896063;29;20041;-78
2021/08/22 10:47:01;;;;;;;6.68;3.40;;;;;;;26.05;50.17;92915.91;4882443;29;20051;-78
2021/08/22 10:49:51;;;;;;;7.30;3.40;;;;;;;26.04;49.97;92919.75;4888243;29;20045;-80
2021/08/22 10:52:34;;;;;;;6.65;3.40;;;;;;;26.07;49.51;92921.69;4878497;29;20539;-80
2021/08/22 10:55:14;;;;;;;5.00;3.45;;;;;;;25.95;49.71;92920.06;4899409;29;20060;-78
2021/08/22 10:57:43;;;;;;;4.20;2.63;;;;;;;25.67;48.02;92909.84;4900721;29;20063;-80
2021/08/22 11:00:29;;;;;;;5.13;2.50;;;;;;;25.39;48.13;92910.38;4883362;29;20043;-80
2021/08/22 11:02:57;;;;;;;3.20;2.00;;;;;;;25.79;47.39;92908.81;4898579;29;20072;-82
2021/08/22 11:05:25;;;;;;;6.32;3.30;;;;;;;26.27;46.58;92900.72;4883647;29;20055;-79
2021/08/22 11:07:52;;;;;;;5.70;2.50;;;;;;;25.92;48.48;92902.06;4899484;29;20059;-81
2021/08/22 11:10:20;;;;;;;5.07;2.50;;;;;;;25.88;50.41;92899.34;4891425;29;20048;-80
2021/08/22 11:12:50;;;;;;;8.45;2.85;;;;;;;25.98;50.70;92907.81;4900380;29;20519;-78
2021/08/22 11:15:24;;;;;;;4.45;2.20;;;;;;;25.69;52.18;92891.47;4868774;29;20099;-79
2021/08/22 11:17:57;;;;;;;4.40;2.40;;;;;;;25.50;51.37;92889.81;4885441;29;20124;-81
2021/08/22 11:20:27;;;;;;;5.68;2.88;;;;;;;25.02;53.09;92892.41;4899200;29;20497;-79
2021/08/22 11:23:16;;;;;;;3.42;2.17;;;;;;;25.34;52.76;92898.09;4879258;29;20075;-80
2021/08/22 11:25:46;;;;;;;3.95;2.47;;;;;;;25.06;52.42;92888.63;4879405;29;20523;-79
2021/08/22 11:28:17;;;;;;;5.03;2.80;;;;;;;25.16;52.20;92889.09;4878661;29;20488;-79
2021/08/22 11:30:44;;;;;;;3.80;2.50;;;;;;;25.06;52.67;92896.66;4896853;29;20506;-79
2021/08/22 11:33:11;;;;;;;3.80;2.40;;;;;;;24.99;54.47;92893.09;4896347;29;20033;-79
2021/08/22 11:35:39;;;;;;;3.78;2.05;;;;;;;25.23;52.85;92881.91;4882554;29;20068;-80
2021/08/22 11:38:05;;;;;;;5.00;2.90;;;;;;;25.47;52.67;92883.28;4874115;29;20045;-80
2021/08/22 11:40:32;;;;;;;3.67;2.15;;;;;;;25.47;51.60;92885.19;4881569;29;20136;-79
2021/08/22 11:43:01;;;;;;;5.15;2.88;;;;;;;25.01;52.99;92880.88;4877775;29;20037;-80
2021/08/22 11:45:36;;;;;;;10.70;2.78;;;;;;;24.86;54.71;92874.63;4861643;29;20060;-80
2021/08/22 11:48:03;;;;;;;4.63;2.45;;;;;;;24.86;52.75;92879.22;4895337;29;20040;-80
2021/08/22 11:50:31;;;;;;;4.28;2.45;;;;;;;24.62;53.68;92886.59;4879589;29;20036;-79
2021/08/22 11:52:59;;;;;;;3.88;2.30;;;;;;;25.00;52.97;92882.03;4880878;29;20087;-79
2021/08/22 11:55:34;;;;;;;4.03;2.13;;;;;;;25.13;52.92;92886.00;4896702;29;20463;-79
2021/08/22 11:58:10;;;;;;;3.85;2.30;;;;;;;25.51;52.81;92876.03;4880323;29;20502;-80
2021/08/22 12:00:37;;;;;;;5.97;2.70;;;;;;;24.83;54.14;92874.59;4871742;29;20488;-79
2021/08/22 12:03:03;;;;;;;3.97;2.50;;;;;;;25.06;53.40;92869.06;4894713;29;20487;-77
2021/08/22 12:05:33;;;;;;;7.50;3.10;;;;;;;25.12;51.96;92871.06;4895709;29;20045;-79
2021/08/22 12:08:08;;;;;;;4.40;2.53;;;;;;;24.95;53.96;92863.63;4878223;29;20044;-80
2021/08/22 12:10:36;;;;;;;3.40;1.83;;;;;;;25.11;56.45;92868.75;4896379;29;20048;-79
2021/08/22 12:13:02;;;;;;;4.68;2.95;;;;;;;24.95;55.01;92866.31;4896293;29;20745;-79
2021/08/22 12:15:28;;;;;;;4.30;2.53;;;;;;;24.68;55.09;92863.72;4895660;29;20495;-78
2021/08/22 12:18:26;;;;;;;4.72;2.40;;;;;;;24.48;58.23;92862.34;4883767;29;20127;-82
2021/08/22 12:21:15;;;;;;;5.47;2.88;;;;;;;24.35;58.92;92866.34;4882758;29;20040;-80
2021/08/22 12:23:43;;;;;;;5.88;3.15;;;;;;;24.12;59.23;92859.19;4899011;29;20145;-81
2021/08/22 12:26:26;;;;;;;4.78;2.38;;;;;;;24.17;58.93;92858.09;4898384;29;20068;-78
2021/08/22 12:29:07;;;;;;;6.18;2.75;;;;;;;23.96;59.57;92863.91;4882534;29;20358;-79
2021/08/22 12:31:35;;;;;;;4.45;2.40;;;;;;;24.24;56.84;92850.91;4880634;29;20037;-80
2021/08/22 12:34:12;;;;;;;4.22;2.70;;;;;;;24.15;57.63;92847.75;4849590;29;20049;-78
2021/08/22 12:36:43;;;;;;;4.03;2.47;;;;;;;24.22;56.15;92857.78;4881820;29;20057;-80
2021/08/22 12:39:14;;;;;;;3.95;2.10;;;;;;;24.58;54.19;92859.00;4900525;29;20060;-80
2021/08/22 12:41:48;;;;;;;3.25;2.03;;;;;;;24.77;55.30;92855.41;4882811;29;20064;-80
2021/08/22 12:44:20;;;;;;;4.53;2.83;;;;;;;24.79;53.95;92852.34;4901652;29;20418;-79
2021/08/22 12:46:57;;;;;;;4.07;2.53;;;;;;;25.05;54.56;92854.91;4900648;29;20065;-79
2021/08/22 12:49:23;;;;;;;3.85;2.22;;;;;;;25.57;53.60;92846.22;4885541;29;20053;-80
2021/08/22 12:51:59;;;;;;;5.97;2.30;;;;;;;26.02;51.50;92839.66;4887372;29;20135;-80
2021/08/22 12:54:26;;;;;;;5.38;2.97;;;;;;;26.46;50.74;92833.38;4904989;29;20507;-80
2021/08/22 12:56:53;;;;;;;4.47;2.47;;;;;;;26.04;51.24;92837.38;4885727;29;20033;-80
2021/08/22 12:59:20;;;;;;;5.38;2.80;;;;;;;26.13;51.98;92831.66;4886572;29;20056;-79
2021/08/22 13:01:47;;;;;;;3.35;2.15;;;;;;;24.75;54.30;92844.28;4883669;29;20041;-79
2021/08/22 13:04:14;;;;;;;3.83;2.60;;;;;;;24.86;52.86;92837.16;4883644;29;20550;-79
2021/08/22 13:06:40;;;;;;;4.72;2.92;;;;;;;25.05;53.69;92843.44;4899184;29;20044;-78
2021/08/22 13:09:06;;;;;;;2.78;1.88;;;;;;;25.08;53.80;92832.78;4882348;29;20049;-79
2021/08/22 13:11:34;;;;;;;4.05;2.22;;;;;;;24.65;55.21;92832.31;4854936;29;20470;-78
2021/08/22 13:13:59;;;;;;;5.65;2.40;;;;;;;24.48;53.65;92827.56;4901686;29;20059;-79
2021/08/22 13:16:25;;;;;;;4.30;2.55;;;;;;;24.55;54.21;92826.88;4902727;29;20410;-80
2021/08/22 13:18:52;;;;;;;5.43;2.78;;;;;;;24.49;54.63;92831.75;4897646;29;20037;-78
2021/08/22 13:21:19;;;;;;;5.68;2.78;;;;;;;24.55;53.35;92827.63;4881360;29;20434;-81
2021/08/22 13:23:45;;;;;;;4.25;2.55;;;;;;;24.70;54.56;92828.53;4876011;29;20037;-81
2021/08/22 13:26:12;;;;;;;5.78;2.47;;;;;;;24.94;52.48;92827.28;4883708;29;20131;-79
2021/08/22 13:28:38;;;;;;;4.97;2.72;;;;;;;25.01;53.15;92815.84;4881698;29;20060;-81
2021/08/22 13:31:05;;;;;;;4.38;2.40;;;;;;;24.84;53.78;92807.28;4901255;29;20041;-77
2021/08/22 13:33:31;;;;;;;3.75;2.20;;;;;;;24.64;54.45;92812.06;4902286;29;20055;-79
2021/08/22 13:35:56;;;;;;;5.20;2.78;;;;;;;24.83;53.58;92808.41;4902126;29;20115;-79
2021/08/22 13:38:22;;;;;;;3.88;2.40;;;;;;;24.82;53.72;92811.47;4885061;29;20555;-78
2021/08/22 13:40:48;;;;;;;5.20;2.78;;;;;;;25.21;53.04;92805.75;4901474;29;20103;-82
2021/08/22 13:43:14;;;;;;;4.95;3.00;;;;;;;25.58;53.76;92811.00;4894231;29;20044;-79
2021/08/22 13:45:40;;;;;;;5.38;2.60;;;;;;;25.82;53.91;92798.91;4857613;29;20052;-78
2021/08/22 13:48:06;;;;;;;5.28;2.72;;;;;;;26.33;52.19;92794.59;4881474;29;20135;-79
2021/08/22 13:50:33;;;;;;;5.25;3.00;;;;;;;26.65;51.10;92794.72;4879265;29;20135;-78
2021/08/22 13:53:00;;;;;;;4.03;2.55;;;;;;;26.60;50.71;92792.41;4882188;29;20063;-81
2021/08/22 13:55:26;;;;;;;5.80;3.13;;;;;;;25.93;51.92;92788.25;4901378;29;20364;-79
2021/08/22 13:57:52;;;;;;;5.75;2.78;;;;;;;26.10;53.10;92787.59;4900707;29;20048;-79
2021/08/22 14:00:18;;;;;;;4.72;2.55;;;;;;;26.21;52.56;92784.97;4882269;29;20151;-82
2021/08/22 14:02:44;;;;;;;5.57;3.28;;;;;;;26.49;51.12;92780.84;4898092;29;20056;-79
2021/08/22 14:05:10;;;;;;;6.82;3.10;;;;;;;26.75;50.10;92782.44;4890973;29;20101;-78
2021/08/22 14:07:35;;;;;;;5.50;2.38;;;;;;;26.65;50.92;92777.84;4866314;29;20056;-79
2021/08/22 14:10:01;;;;;;;4.38;2.42;;;;;;;26.39;50.96;92774.31;4869071;29;20119;-79
2021/08/22 14:12:28;;;;;;;4.28;2.38;;;;;;;26.35;49.48;92776.19;4867836;29;20060;-77
2021/08/22 14:14:53;;;;;;;4.75;2.47;;;;;;;26.69;50.64;92773.25;4881920;29;20086;-78
2021/08/22 14:17:19;;;;;;;5.60;2.80;;;;;;;26.68;50.42;92777.06;4899894;29;20122;-80
2021/08/22 14:19:49;;;;;;;4.78;2.63;;;;;;;27.17;49.27;92772.94;4883904;29;20044;-80
2021/08/22 14:22:15;;;;;;;4.72;2.78;;;;;;;27.32;48.79;92771.81;4901156;29;20045;-81
2021/08/22 14:24:41;;;;;;;4.65;2.70;;;;;;;26.85;48.94;92775.59;4884180;29;20064;-82
2021/08/22 14:27:07;;;;;;;4.03;2.45;;;;;;;26.73;49.56;92774.03;4901569;29;20107;-80
2021/08/22 14:29:33;;;;;;;6.18;2.47;;;;;;;25.36;51.24;92777.16;4885619;29;20044;-83
2021/08/22 14:31:58;;;;;;;4.13;2.55;;;;;;;26.06;50.58;92776.06;4901078;29;20054;-80
2021/08/22 14:34:24;;;;;;;4.50;2.53;;;;;;;26.65;49.77;92769.78;4884251;29;20153;-82
2021/08/22 14:36:53;;;;;;;4.70;2.60;;;;;;;26.76;49.55;92779.41;4882864;29;20065;-83
2021/08/22 14:39:18;;;;;;;4.90;2.78;;;;;;;27.37;48.21;92768.72;4895142;29;20048;-81
2021/08/22 14:41:44;;;;;;;4.60;2.85;;;;;;;27.65;47.27;92771.78;4872295;29;20059;-81
2021/08/22 14:44:09;;;;;;;4.05;2.65;;;;;;;27.55;47.81;92776.78;4898244;29;20088;-81
2021/08/22 14:46:35;;;;;;;6.43;3.10;;;;;;;27.19;47.19;92782.13;4877049;29;20045;-80
2021/08/22 14:49:01;;;;;;;5.00;2.65;;;;;;;26.99;48.37;92775.59;4883126;29;20513;-81
2021/08/22 14:51:27;;;;;;;3.53;2.30;;;;;;;27.11;49.50;92769.88;4881521;29;20087;-79
2021/08/22 14:53:54;;;;;;;5.28;2.95;;;;;;;27.05;49.55;92774.06;4896780;29;20040;-80
2021/08/22 14:56:19;;;;;;;4.28;2.92;;;;;;;27.19;49.32;92776.00;4900688;29;20048;-81
2021/08/22 14:58:45;;;;;;;5.82;3.03;;;;;;;26.56;49.61;92772.84;4893545;29;20089;-83
2021/08/22 15:01:12;;;;;;;4.53;2.95;;;;;;;26.82;49.65;92768.28;4871121;29;20076;-81
2021/08/22 15:03:38;;;;;;;5.40;2.95;;;;;;;26.71;48.42;92760.97;4833266;29;20126;-81
2021/08/22 15:06:07;;;;;;;6.38;3.38;;;;;;;27.16;48.34;92753.34;4833217;29;20045;-78
2021/08/22 15:08:33;;;;;;;4.75;2.63;;;;;;;27.24;49.45;92753.38;4845237;29;20030;-82
2021/08/22 15:10:58;;;;;;;4.50;2.78;;;;;;;27.42;49.74;92759.50;4859325;29;20199;-83
2021/08/22 15:13:24;;;;;;;5.32;3.00;;;;;;;27.53;46.67;92744.13;4846762;29;20049;-82
2021/08/22 15:15:50;;;;;;;5.38;2.80;;;;;;;26.85;48.92;92741.44;4841248;29;20126;-81
2021/08/22 15:18:15;;;;;;;5.28;2.42;;;;;;;26.42;51.21;92740.56;4845413;29;20439;-80
2021/08/22 15:20:41;;;;;;;5.57;2.67;;;;;;;27.06;50.61;92743.38;4861300;29;21596;-82
2021/08/22 15:23:08;;;;;;;6.85;2.55;;;;;;;26.92;48.64;92735.31;4829408;29;20133;-81
2021/08/22 15:25:35;;;;;;;5.47;3.22;;;;;;;27.40;47.91;92734.94;4857616;29;20452;-82
2021/08/22 15:28:01;;;;;;;4.72;2.65;;;;;;;27.43;46.73;92734.19;4861585;29;20124;-82
2021/08/22 15:30:28;;;;;;;5.40;2.60;;;;;;;27.55;46.13;92736.44;4864154;29;20500;-82
2021/08/22 15:32:53;;;;;;;4.35;2.42;;;;;;;27.02;47.99;92725.72;4834493;29;20042;-81
2021/08/22 15:35:19;;;;;;;4.75;2.75;;;;;;;27.48;46.94;92730.34;4859575;29;20049;-82
2021/08/22 15:37:46;;;;;;;5.10;2.80;;;;;;;27.13;46.10;92727.25;4833050;29;20048;-82
2021/08/22 15:40:14;;;;;;;5.55;2.95;;;;;;;27.26;46.65;92726.91;4833716;29;21405;-82
2021/08/22 15:42:42;;;;;;;5.10;2.90;;;;;;;27.20;45.87;92721.91;4845621;29;20045;-83
2021/08/22 15:45:09;;;;;;;3.08;1.95;;;;;;;27.51;46.29;92722.25;4861260;29;20057;-79
2021/08/22 15:47:34;;;;;;;5.93;3.33;;;;;;;27.38;46.12;92724.59;4845744;29;20054;-82
2021/08/22 15:50:00;;;;;;;9.63;2.55;;;;;;;27.17;46.11;92717.25;4846735;29;20440;-82
2021/08/22 15:52:25;;;;;;;4.03;2.53;;;;;;;26.98;46.61;92721.13;4840877;29;20037;-82
2021/08/22 15:54:51;;;;;;;3.97;2.55;;;;;;;26.55;47.89;92714.94;4856668;29;20177;-82
2021/08/22 15:57:21;;;;;;;5.00;2.65;;;;;;;26.63;47.98;92719.16;4851469;29;20511;-84
2021/08/22 15:59:46;;;;;;;4.22;2.45;;;;;;;26.56;48.01;92724.53;4862291;29;20057;-81
2021/08/22 16:02:12;;;;;;;4.43;2.50;;;;;;;26.43;48.95;92739.41;4884225;29;20052;-81
2021/08/22 16:04:37;;;;;;;6.45;2.75;;;;;;;26.32;49.23;92734.78;4882220;29;20159;-81
2021/08/22 16:07:03;;;;;;;9.90;2.70;;;;;;;26.22;49.11;92724.78;4881150;29;20045;-83
2021/08/22 16:09:29;;;;;;;5.00;2.65;;;;;;;26.09;49.28;92731.63;4871747;29;20056;-81
2021/08/22 16:12:00;;;;;;;4.78;2.63;;;;;;;25.96;50.08;92726.63;4881496;29;20052;-81
2021/08/22 16:14:26;;;;;;;4.35;2.53;;;;;;;25.84;51.01;92720.78;4899435;29;20414;-81
2021/08/22 16:16:52;;;;;;;4.45;2.63;;;;;;;25.72;51.68;92724.56;4898962;29;20072;-81
2021/08/22 16:19:17;;;;;;;4.25;2.53;;;;;;;25.55;53.60;92725.97;4866931;29;20574;-77
2021/08/22 16:21:43;;;;;;;4.70;2.67;;;;;;;25.44;54.18;92722.47;4862157;29;20574;-77
2021/08/22 16:24:09;;;;;;;4.63;2.60;;;;;;;25.27;55.67;92726.56;4871170;29;20049;-77
2021/08/22 16:26:35;;;;;;;5.68;2.83;;;;;;;25.13;56.02;92719.94;4867166;29;20041;-80
2021/08/22 16:29:04;;;;;;;4.85;2.80;;;;;;;25.02;56.69;92732.47;4886411;29;20065;-80
2021/08/22 16:31:30;;;;;;;8.75;2.92;;;;;;;24.92;56.87;92725.88;4893805;29;20523;-78
2021/08/22 16:33:55;;;;;;;5.53;2.83;;;;;;;24.83;57.33;92727.34;4903859;29;20036;-80
2021/08/22 16:36:21;;;;;;;4.47;2.65;;;;;;;24.73;57.49;92721.53;4880100;29;20441;-80
2021/08/22 16:38:46;;;;;;;5.00;2.67;;;;;;;24.59;57.94;92716.06;4888285;29;20052;-80
2021/08/22 16:41:12;;;;;;;4.35;2.80;;;;;;;24.51;57.82;92712.53;4883936;29;20040;-79
2021/08/22 16:43:38;;;;;;;8.95;2.67;;;;;;;24.45;58.00;92716.66;4885057;29;20079;-80
2021/08/22 16:46:03;;;;;;;4.38;2.45;;;;;;;24.36;58.14;92712.72;4875230;29;20062;-79